• Join FlightAware (Why Join?)
  • Login
  • US Flag 
08:15PM EDT


 

Airport Tracker/Info


-or-


 

Live Flight TrackerFlight Track Log ✈ GJS6256 ✈ 08-Sep-2013 ✈ KMKE - KLGA

Flight Track Log - Related Links

Times and Time Zones

All times are in EDT time to prevent confusion due to time zone crossing. See the GJS6256 flight status page for this flight to view local times or setup timezone preferences in your user account.

Time Position Orientation Groundspeed Altitude Reporting Facility
EDT Latitude Longitude Course Direction KTS MPH feet Rate Location/Type
12:56PM 42.9500 -87.8833 90° East 147 169 1,400  Level KMKE
12:57PM 42.9500 -87.8333 90° East 182 209 3,000 1,680 Climbing KMKE
12:57PM 42.9219 -87.8422 193° South 218 251 3,700 2,220 Climbing Chicago Center
12:58PM 42.8828 -87.9272 238° Southwest 234 269 6,600 2,400 Climbing Chicago Center
12:59PM 42.8536 -88.0064 243° Southwest 256 295 8,700 2,280 Climbing Chicago Center
01:00PM 42.7728 -88.0489 201° Southwest 296 341 11,400 2,340 Climbing Chicago Center
01:01PM 42.6889 -88.0378 174° South 303 349 13,600 1,560 Climbing Chicago Center
01:02PM 42.5944 -88.0256 175° South 349 402 14,700 1,200 Climbing Chicago Center
01:04PM 42.5006 -87.9675 155° Southeast 384 442 16,200 1,500 Climbing Chicago Center
01:05PM 42.4122 -87.8819 144° Southeast 393 452 17,800 1,680 Climbing Chicago Center
01:06PM 42.3033 -87.7772 145° Southeast 400 460 19,800 1,560 Climbing Chicago Center
01:07PM 42.2067 -87.6989 149° Southeast 407 468 21,100 1,200 Climbing Chicago Center
01:08PM 42.1042 -87.6167 149° Southeast 425 489 22,300 1,140 Climbing Chicago Center
01:09PM 42.0014 -87.5319 149° Southeast 433 498 23,500 1,140 Climbing Chicago Center
01:10PM 41.9575 -87.3861 112° Southeast 442 509 24,700 1,080 Climbing Chicago Center
01:11PM 41.9483 -87.2233 94° East 438 504 25,800 960 Climbing Chicago Center
01:12PM 41.9253 -87.0244 99° East 457 526 26,800 900 Climbing Chicago Center
01:13PM 41.8858 -86.8592 108° East 466 536 27,700 840 Climbing Chicago Center
01:14PM 41.8467 -86.6911 107° East 472 543 28,600 720 Climbing Chicago Center
01:15PM 41.8103 -86.5286 107° East 481 554 29,300 720 Climbing Chicago Center
01:16PM 41.8072 -86.3506 91° East 480 552 30,100 840 Climbing Chicago Center
01:17PM 41.8061 -86.1342 90° East 485 558 31,100 840 Climbing Chicago Center
01:18PM 41.8044 -85.9511 91° East 490 564 31,900 720 Climbing Chicago Center
01:19PM 41.8028 -85.7681 91° East 491 565 32,700 480 Climbing Chicago Center
01:20PM 41.8017 -85.5842 90° East 490 564 33,000 120 Climbing Chicago Center
01:21PM 41.7992 -85.3972 91° East 492 566 33,000  Level Chicago Center
01:22PM 41.7961 -85.2150 91° East 479 551 33,000  Level Chicago Center
01:23PM 41.7922 -85.0339 92° East 482 555 33,000  Level Chicago Center
01:24PM 41.7883 -84.8528 92° East 488 562 33,000  Level Chicago Center
01:25PM 41.7836 -84.6406 92° East 478 550 33,000  Level Chicago Center
01:26PM 41.7786 -84.4633 92° East 477 549 33,000  Level Chicago Center
01:27PM 41.7764 -84.2839 91° East 481 554 33,000  Level Chicago Center
01:28PM 41.7775 -84.1036 89° East 484 557 33,000  Level Chicago Center
01:29PM 41.7722 -83.9050 92° East 481 554 33,000  Level Cleveland Center
01:30PM 41.7689 -83.7236 91° East 481 554 33,000  Level Cleveland Center
01:31PM 41.7653 -83.5425 91° East 481 554 33,000  Level Cleveland Center
01:32PM 41.7492 -83.3581 97° East 486 559 33,000  Level Cleveland Center
01:33PM 41.7306 -83.1764 98° East 491 565 33,000  Level Cleveland Center
01:34PM 41.7136 -82.9950 97° East 491 565 33,000  Level Cleveland Center
01:35PM 41.6964 -82.8136 97° East 491 565 33,000  Level Cleveland Center
01:36PM 41.6769 -82.6347 98° East 486 559 33,000  Level Cleveland Center
01:37PM 41.6592 -82.4564 98° East 486 559 33,000  Level Cleveland Center
01:38PM 41.6428 -82.2919 98° East 486 559 33,000  Level Cleveland Center
01:39PM 41.6244 -82.1136 98° East 486 559 33,000  Level Cleveland Center
01:40PM 41.6039 -81.9300 98° East 491 565 33,000  Level Cleveland Center
01:41PM 41.5831 -81.7325 98° East 491 565 33,000  Level Cleveland Center
01:42PM 41.5619 -81.5461 99° East 491 565 33,000  Level Cleveland Center
01:43PM 41.5403 -81.3656 99° East 496 571 33,000  Level Cleveland Center
01:44PM 41.5186 -81.1850 99° East 496 571 33,000  Level Cleveland Center
01:45PM 41.5025 -81.0211 97° East 496 571 33,000  Level Cleveland Center
01:46PM 41.4864 -80.8408 97° East 491 565 33,000  Level Cleveland Center
01:47PM 41.4722 -80.6608 96° East 491 565 33,000  Level Cleveland Center
01:48PM 41.4556 -80.4806 97° East 491 565 33,000  Level Cleveland Center
01:49PM 41.4406 -80.3006 96° East 491 565 33,000  Level Cleveland Center
01:50PM 41.4233 -80.1206 97° East 491 565 33,000  Level Cleveland Center
01:51PM 41.4058 -79.9464 98° East 486 559 33,000  Level Cleveland Center
01:52PM 41.3858 -79.7667 98° East 486 559 33,000  Level Cleveland Center
01:54PM 41.3664 -79.5879 98° East  Level FlightAware Approximate
01:54PM 41.3536 -79.4075 98° East 486 559 33,000  Level Cleveland Center
01:55PM 41.3331 -79.2336 99° East 480 552 33,000  Level Cleveland Center
01:56PM 41.3161 -79.0572 97° East 480 552 33,000  Level Cleveland Center
01:57PM 41.2969 -78.8806 98° East 480 552 33,000  Level Cleveland Center
01:58PM 41.2775 -78.7017 98° East 485 558 33,000  Level Cleveland Center
02:01PM 41.2319 -78.2783 98° East 476 548 33,000  Level New York Center
02:02PM 41.2094 -78.1019 100° East 476 548 33,000  Level New York Center
02:03PM 41.1889 -77.9289 99° East 481 554 33,000 -300 Level New York Center
02:04PM 41.1661 -77.7528 100° East 481 554 32,500 -900 Descending New York Center
02:05PM 41.1431 -77.5739 100° East 481 554 31,200 -1,380 Descending New York Center
02:06PM 41.1217 -77.3983 99° East 481 554 29,800 -1,560 Descending New York Center
02:07PM 41.0950 -77.2056 100° East 486 559 28,100 -1,680 Descending New York Center
02:08PM 41.0667 -77.0322 102° East 486 559 26,500 -1,620 Descending New York Center
02:09PM 41.0358 -76.8669 104° East 475 547 24,900 -1,620 Descending New York Center
02:10PM 41.0064 -76.7075 104° East 459 528 23,300 -1,560 Descending New York Center
02:11PM 40.9511 -76.5572 116° Southeast 448 516 21,800 -1,560 Descending New York Center
02:12PM 40.9019 -76.4131 114° Southeast 442 509 20,200 -1,620 Descending New York Center
02:13PM 40.8856 -76.2744 99° East 426 490 18,600 -1,620 Descending New York Center
02:14PM 40.8611 -76.1242 102° East 421 484 17,000 -1,680 Descending New York Center
02:15PM 40.8350 -75.9631 102° East 410 472 15,300 -1,680 Descending New York Center
02:16PM 40.8119 -75.8214 102° East 399 459 13,700 -1,200 Descending New York Center
02:17PM 40.7864 -75.6881 104° East 382 440 13,000 -360 Descending New York Center
02:18PM 40.7558 -75.5678 109° East 382 440 13,000  Level New York Center
02:19PM 40.7183 -75.4147 108° East 394 453 13,000 -360 Level New York Center
02:20PM 40.6731 -75.2911 116° Southeast 387 445 12,300 -900 Descending New York Center
02:21PM 40.6314 -75.1792 116° Southeast 363 418 11,300 -960 Descending New York Center
02:22PM 40.5975 -75.0839 115° Southeast 327 376 10,400 -600 Descending New York Center
02:23PM 40.5558 -74.9639 115° Southeast 322 371 10,100 -240 Descending New York Center
02:24PM 40.5333 -74.8667 107° East 319 367 10,000 -60 Descending New York TRACON
02:25PM 40.5000 -74.7500 111° Southeast 321 369 10,000 -360 Level New York TRACON
02:26PM 40.4667 -74.6500 114° Southeast 320 368 9,300 -540 Descending New York TRACON
02:27PM 40.4167 -74.5500 123° Southeast 313 360 9,000 -300 Descending New York TRACON
02:28PM 40.3667 -74.4500 123° Southeast 315 362 8,800 -720 Descending New York TRACON
02:29PM 40.3667 -74.3500 90° East 302 348 7,600 -900 Descending New York TRACON
02:30PM 40.4000 -74.2500 66° East 274 315 7,000 -480 Descending New York TRACON
02:31PM 40.4667 -74.1833 37° Northeast 280 322 6,600 -960 Descending New York TRACON
02:32PM 40.5333 -74.1333 30° Northeast 271 312 5,000 -1,500 Descending New York TRACON
02:33PM 40.5833 -74.0667 45° Northeast 257 296 3,700 -1,080 Descending New York TRACON
02:34PM 40.6333 -74.0167 37° Northeast 256 295 2,900 -600 Descending New York TRACON
02:35PM 40.6833 -73.9667 37° Northeast 199 229 2,500 -360 Descending New York TRACON
02:36PM 40.7167 -73.9167 49° Northeast 187 215 2,200 -720 Descending New York TRACON
02:37PM 40.7333 -73.8667 66° East 167 192 1,200 -960 Descending New York TRACON
02:38PM 40.7667 -73.8333 37° Northeast 141 162 400 -840 Descending New York TRACON
02:40PM 40.7667 -73.8667 30° Northeast  Level FlightAware Approximate
02:47PM 40.7772 -73.8726 30° Northeast  Level Estimated
02:48PM 40.7772 -73.8726 30° Northeast  Level Estimated